sensor_id;sensor_type;location;lat;lon;timestamp;P1;durP1;ratioP1;P2;durP2;ratioP2
32108;SDS011;18624;50.042;8.436;2023-04-24T00:02:14;2.00;;;0.68;;
32108;SDS011;18624;50.042;8.436;2023-04-24T00:04:41;2.10;;;1.65;;
32108;SDS011;18624;50.042;8.436;2023-04-24T00:07:11;1.52;;;1.08;;
32108;SDS011;18624;50.042;8.436;2023-04-24T00:09:38;2.90;;;1.15;;
32108;SDS011;18624;50.042;8.436;2023-04-24T00:12:05;2.03;;;1.27;;
32108;SDS011;18624;50.042;8.436;2023-04-24T00:14:32;2.13;;;1.20;;
32108;SDS011;18624;50.042;8.436;2023-04-24T00:16:58;5.63;;;1.58;;
32108;SDS011;18624;50.042;8.436;2023-04-24T00:19:25;2.83;;;1.08;;
32108;SDS011;18624;50.042;8.436;2023-04-24T00:21:51;3.85;;;1.25;;
32108;SDS011;18624;50.042;8.436;2023-04-24T00:24:18;1.30;;;0.80;;
32108;SDS011;18624;50.042;8.436;2023-04-24T00:26:44;1.90;;;0.90;;
32108;SDS011;18624;50.042;8.436;2023-04-24T00:29:11;1.40;;;1.02;;
32108;SDS011;18624;50.042;8.436;2023-04-24T00:31:37;1.42;;;1.10;;
32108;SDS011;18624;50.042;8.436;2023-04-24T00:34:04;3.92;;;0.82;;
32108;SDS011;18624;50.042;8.436;2023-04-24T00:36:31;1.08;;;0.98;;
32108;SDS011;18624;50.042;8.436;2023-04-24T00:38:58;2.42;;;1.15;;
32108;SDS011;18624;50.042;8.436;2023-04-24T00:41:25;1.10;;;0.82;;
32108;SDS011;18624;50.042;8.436;2023-04-24T00:43:52;2.35;;;0.80;;
32108;SDS011;18624;50.042;8.436;2023-04-24T00:46:18;3.38;;;1.23;;
32108;SDS011;18624;50.042;8.436;2023-04-24T00:48:45;2.25;;;0.93;;
32108;SDS011;18624;50.042;8.436;2023-04-24T00:51:12;2.63;;;1.02;;
32108;SDS011;18624;50.042;8.436;2023-04-24T00:53:39;4.38;;;1.58;;
32108;SDS011;18624;50.042;8.436;2023-04-24T00:56:05;1.20;;;1.00;;
32108;SDS011;18624;50.042;8.436;2023-04-24T00:58:32;0.82;;;0.70;;
32108;SDS011;18624;50.042;8.436;2023-04-24T01:00:59;2.65;;;1.95;;
32108;SDS011;18624;50.042;8.436;2023-04-24T01:03:28;2.03;;;1.13;;
32108;SDS011;18624;50.042;8.436;2023-04-24T01:05:57;1.42;;;1.10;;
32108;SDS011;18624;50.042;8.436;2023-04-24T01:08:24;2.80;;;1.27;;
32108;SDS011;18624;50.042;8.436;2023-04-24T01:10:55;4.28;;;1.10;;
32108;SDS011;18624;50.042;8.436;2023-04-24T01:13:23;2.25;;;1.20;;
32108;SDS011;18624;50.042;8.436;2023-04-24T01:15:49;2.38;;;1.50;;
32108;SDS011;18624;50.042;8.436;2023-04-24T01:18:16;3.45;;;1.73;;
32108;SDS011;18624;50.042;8.436;2023-04-24T01:20:43;3.55;;;1.60;;
32108;SDS011;18624;50.042;8.436;2023-04-24T01:23:12;1.98;;;1.27;;
32108;SDS011;18624;50.042;8.436;2023-04-24T01:25:39;2.97;;;1.20;;
32108;SDS011;18624;50.042;8.436;2023-04-24T01:28:06;3.58;;;1.80;;
32108;SDS011;18624;50.042;8.436;2023-04-24T01:30:32;3.30;;;1.38;;
32108;SDS011;18624;50.042;8.436;2023-04-24T01:32:59;1.60;;;1.42;;
32108;SDS011;18624;50.042;8.436;2023-04-24T01:35:26;4.43;;;1.80;;
32108;SDS011;18624;50.042;8.436;2023-04-24T01:37:53;2.70;;;1.27;;
32108;SDS011;18624;50.042;8.436;2023-04-24T01:40:19;1.83;;;1.48;;
32108;SDS011;18624;50.042;8.436;2023-04-24T01:42:46;2.13;;;1.02;;
32108;SDS011;18624;50.042;8.436;2023-04-24T01:45:13;2.88;;;1.25;;
32108;SDS011;18624;50.042;8.436;2023-04-24T01:47:39;5.93;;;1.27;;
32108;SDS011;18624;50.042;8.436;2023-04-24T01:50:07;3.35;;;1.20;;
32108;SDS011;18624;50.042;8.436;2023-04-24T01:52:34;2.35;;;1.10;;
32108;SDS011;18624;50.042;8.436;2023-04-24T01:55:02;2.55;;;1.27;;
32108;SDS011;18624;50.042;8.436;2023-04-24T01:57:30;2.08;;;1.80;;
32108;SDS011;18624;50.042;8.436;2023-04-24T01:59:57;2.03;;;0.98;;
32108;SDS011;18624;50.042;8.436;2023-04-24T02:02:24;3.08;;;1.20;;
32108;SDS011;18624;50.042;8.436;2023-04-24T02:04:53;2.40;;;1.38;;
32108;SDS011;18624;50.042;8.436;2023-04-24T02:07:21;2.60;;;1.30;;
32108;SDS011;18624;50.042;8.436;2023-04-24T02:09:47;2.78;;;1.38;;
32108;SDS011;18624;50.042;8.436;2023-04-24T02:12:15;4.20;;;1.42;;
32108;SDS011;18624;50.042;8.436;2023-04-24T02:14:43;1.30;;;0.90;;
32108;SDS011;18624;50.042;8.436;2023-04-24T02:17:10;1.35;;;0.68;;
32108;SDS011;18624;50.042;8.436;2023-04-24T02:19:38;1.52;;;1.08;;
32108;SDS011;18624;50.042;8.436;2023-04-24T02:22:05;1.35;;;1.10;;
32108;SDS011;18624;50.042;8.436;2023-04-24T02:24:33;0.85;;;0.70;;
32108;SDS011;18624;50.042;8.436;2023-04-24T02:26:59;3.00;;;1.42;;
32108;SDS011;18624;50.042;8.436;2023-04-24T02:29:26;1.50;;;1.40;;
32108;SDS011;18624;50.042;8.436;2023-04-24T02:31:52;2.45;;;1.10;;
32108;SDS011;18624;50.042;8.436;2023-04-24T02:34:19;1.90;;;1.13;;
32108;SDS011;18624;50.042;8.436;2023-04-24T02:36:45;2.83;;;1.40;;
32108;SDS011;18624;50.042;8.436;2023-04-24T02:39:13;1.30;;;1.10;;
32108;SDS011;18624;50.042;8.436;2023-04-24T02:41:42;1.98;;;1.60;;
32108;SDS011;18624;50.042;8.436;2023-04-24T02:44:09;1.92;;;1.02;;
32108;SDS011;18624;50.042;8.436;2023-04-24T02:46:36;2.35;;;0.98;;
32108;SDS011;18624;50.042;8.436;2023-04-24T02:49:02;2.97;;;1.13;;
32108;SDS011;18624;50.042;8.436;2023-04-24T02:51:29;2.45;;;1.75;;
32108;SDS011;18624;50.042;8.436;2023-04-24T02:53:56;3.67;;;1.30;;
32108;SDS011;18624;50.042;8.436;2023-04-24T02:56:23;1.20;;;0.80;;
32108;SDS011;18624;50.042;8.436;2023-04-24T02:58:49;1.90;;;1.15;;
32108;SDS011;18624;50.042;8.436;2023-04-24T03:01:16;1.90;;;0.85;;
32108;SDS011;18624;50.042;8.436;2023-04-24T03:03:42;1.90;;;1.10;;
32108;SDS011;18624;50.042;8.436;2023-04-24T03:06:09;5.40;;;1.30;;
32108;SDS011;18624;50.042;8.436;2023-04-24T03:08:35;1.25;;;1.15;;
32108;SDS011;18624;50.042;8.436;2023-04-24T03:11:02;1.70;;;1.33;;
32108;SDS011;18624;50.042;8.436;2023-04-24T03:13:28;0.88;;;0.80;;
32108;SDS011;18624;50.042;8.436;2023-04-24T03:15:54;2.08;;;1.30;;
32108;SDS011;18624;50.042;8.436;2023-04-24T03:18:21;2.92;;;1.30;;
32108;SDS011;18624;50.042;8.436;2023-04-24T03:20:49;2.88;;;1.30;;
32108;SDS011;18624;50.042;8.436;2023-04-24T03:23:16;1.80;;;1.67;;
32108;SDS011;18624;50.042;8.436;2023-04-24T03:25:42;1.75;;;1.02;;
32108;SDS011;18624;50.042;8.436;2023-04-24T03:28:10;1.55;;;0.70;;
32108;SDS011;18624;50.042;8.436;2023-04-24T03:30:43;1.25;;;0.82;;
32108;SDS011;18624;50.042;8.436;2023-04-24T03:33:10;3.10;;;0.75;;
32108;SDS011;18624;50.042;8.436;2023-04-24T03:35:43;1.58;;;0.80;;
32108;SDS011;18624;50.042;8.436;2023-04-24T03:38:11;4.50;;;1.30;;
32108;SDS011;18624;50.042;8.436;2023-04-24T03:40:40;3.17;;;1.00;;
32108;SDS011;18624;50.042;8.436;2023-04-24T03:43:23;2.88;;;1.20;;
32108;SDS011;18624;50.042;8.436;2023-04-24T03:45:50;2.97;;;1.88;;
32108;SDS011;18624;50.042;8.436;2023-04-24T03:48:17;1.85;;;1.05;;
32108;SDS011;18624;50.042;8.436;2023-04-24T03:50:43;2.15;;;1.23;;
32108;SDS011;18624;50.042;8.436;2023-04-24T03:53:11;1.63;;;0.70;;
32108;SDS011;18624;50.042;8.436;2023-04-24T03:55:40;2.95;;;1.20;;
32108;SDS011;18624;50.042;8.436;2023-04-24T03:58:07;1.73;;;0.65;;
32108;SDS011;18624;50.042;8.436;2023-04-24T04:00:34;1.30;;;0.85;;
32108;SDS011;18624;50.042;8.436;2023-04-24T04:03:20;1.73;;;0.80;;
32108;SDS011;18624;50.042;8.436;2023-04-24T04:05:48;2.65;;;1.70;;
32108;SDS011;18624;50.042;8.436;2023-04-24T04:08:14;4.20;;;2.55;;
32108;SDS011;18624;50.042;8.436;2023-04-24T04:10:40;1.30;;;0.90;;
32108;SDS011;18624;50.042;8.436;2023-04-24T04:13:07;1.85;;;1.00;;
32108;SDS011;18624;50.042;8.436;2023-04-24T04:15:34;1.92;;;1.00;;
32108;SDS011;18624;50.042;8.436;2023-04-24T04:18:01;1.77;;;1.20;;
32108;SDS011;18624;50.042;8.436;2023-04-24T04:20:29;1.45;;;1.20;;
32108;SDS011;18624;50.042;8.436;2023-04-24T04:22:55;1.63;;;1.33;;
32108;SDS011;18624;50.042;8.436;2023-04-24T04:25:33;1.60;;;1.50;;
32108;SDS011;18624;50.042;8.436;2023-04-24T04:28:00;1.80;;;1.52;;
32108;SDS011;18624;50.042;8.436;2023-04-24T04:30:28;1.55;;;1.42;;
32108;SDS011;18624;50.042;8.436;2023-04-24T04:33:01;3.55;;;1.83;;
32108;SDS011;18624;50.042;8.436;2023-04-24T04:35:28;2.38;;;1.52;;
32108;SDS011;18624;50.042;8.436;2023-04-24T04:37:55;2.42;;;1.55;;
32108;SDS011;18624;50.042;8.436;2023-04-24T04:40:47;3.70;;;1.85;;
32108;SDS011;18624;50.042;8.436;2023-04-24T04:43:16;1.40;;;1.30;;
32108;SDS011;18624;50.042;8.436;2023-04-24T04:45:49;3.55;;;1.90;;
32108;SDS011;18624;50.042;8.436;2023-04-24T04:48:36;1.50;;;1.40;;
32108;SDS011;18624;50.042;8.436;2023-04-24T04:51:04;4.03;;;1.98;;
32108;SDS011;18624;50.042;8.436;2023-04-24T04:53:31;1.73;;;1.63;;
32108;SDS011;18624;50.042;8.436;2023-04-24T04:55:57;3.58;;;2.17;;
32108;SDS011;18624;50.042;8.436;2023-04-24T04:58:31;2.88;;;1.70;;
32108;SDS011;18624;50.042;8.436;2023-04-24T05:00:59;2.03;;;1.83;;
32108;SDS011;18624;50.042;8.436;2023-04-24T05:03:31;3.22;;;2.00;;
32108;SDS011;18624;50.042;8.436;2023-04-24T05:06:02;1.83;;;1.70;;
32108;SDS011;18624;50.042;8.436;2023-04-24T05:08:32;3.65;;;2.17;;
32108;SDS011;18624;50.042;8.436;2023-04-24T05:10:59;6.15;;;5.30;;
32108;SDS011;18624;50.042;8.436;2023-04-24T05:13:27;2.22;;;2.03;;
32108;SDS011;18624;50.042;8.436;2023-04-24T05:16:21;2.65;;;2.10;;
32108;SDS011;18624;50.042;8.436;2023-04-24T05:18:49;3.67;;;2.13;;
32108;SDS011;18624;50.042;8.436;2023-04-24T05:21:20;3.55;;;3.05;;
32108;SDS011;18624;50.042;8.436;2023-04-24T05:23:49;3.53;;;3.00;;
32108;SDS011;18624;50.042;8.436;2023-04-24T05:26:25;5.95;;;4.40;;
32108;SDS011;18624;50.042;8.436;2023-04-24T05:28:52;3.25;;;2.70;;
32108;SDS011;18624;50.042;8.436;2023-04-24T05:31:19;6.55;;;3.35;;
32108;SDS011;18624;50.042;8.436;2023-04-24T05:33:46;5.47;;;3.47;;
32108;SDS011;18624;50.042;8.436;2023-04-24T05:36:12;3.13;;;2.90;;
32108;SDS011;18624;50.042;8.436;2023-04-24T05:38:40;2.70;;;2.47;;
32108;SDS011;18624;50.042;8.436;2023-04-24T05:41:06;5.22;;;3.42;;
32108;SDS011;18624;50.042;8.436;2023-04-24T05:43:32;3.00;;;2.40;;
32108;SDS011;18624;50.042;8.436;2023-04-24T05:45:59;4.53;;;2.78;;
32108;SDS011;18624;50.042;8.436;2023-04-24T05:48:25;3.10;;;2.80;;
32108;SDS011;18624;50.042;8.436;2023-04-24T05:50:52;7.97;;;3.20;;
32108;SDS011;18624;50.042;8.436;2023-04-24T05:53:19;3.33;;;2.35;;
32108;SDS011;18624;50.042;8.436;2023-04-24T05:55:45;2.75;;;2.53;;
32108;SDS011;18624;50.042;8.436;2023-04-24T05:58:13;4.20;;;2.80;;
32108;SDS011;18624;50.042;8.436;2023-04-24T06:00:40;4.13;;;3.15;;
32108;SDS011;18624;50.042;8.436;2023-04-24T06:03:08;2.67;;;2.47;;
32108;SDS011;18624;50.042;8.436;2023-04-24T06:05:35;3.47;;;2.75;;
32108;SDS011;18624;50.042;8.436;2023-04-24T06:08:02;3.95;;;2.35;;
32108;SDS011;18624;50.042;8.436;2023-04-24T06:10:33;3.13;;;2.75;;
32108;SDS011;18624;50.042;8.436;2023-04-24T06:13:00;3.25;;;2.95;;
32108;SDS011;18624;50.042;8.436;2023-04-24T06:15:29;3.20;;;2.90;;
32108;SDS011;18624;50.042;8.436;2023-04-24T06:18:17;4.22;;;3.08;;
32108;SDS011;18624;50.042;8.436;2023-04-24T06:20:44;5.40;;;3.42;;
32108;SDS011;18624;50.042;8.436;2023-04-24T06:23:11;3.33;;;3.03;;
32108;SDS011;18624;50.042;8.436;2023-04-24T06:25:38;6.38;;;2.60;;
32108;SDS011;18624;50.042;8.436;2023-04-24T06:28:04;5.25;;;3.33;;
32108;SDS011;18624;50.042;8.436;2023-04-24T06:30:31;3.53;;;3.22;;
32108;SDS011;18624;50.042;8.436;2023-04-24T06:32:57;3.83;;;3.28;;
32108;SDS011;18624;50.042;8.436;2023-04-24T06:35:44;5.25;;;3.17;;
32108;SDS011;18624;50.042;8.436;2023-04-24T06:38:10;3.85;;;3.55;;
32108;SDS011;18624;50.042;8.436;2023-04-24T06:40:37;3.85;;;3.45;;
32108;SDS011;18624;50.042;8.436;2023-04-24T06:43:03;4.80;;;3.30;;
32108;SDS011;18624;50.042;8.436;2023-04-24T06:45:30;4.43;;;2.80;;
32108;SDS011;18624;50.042;8.436;2023-04-24T06:47:56;4.65;;;3.47;;
32108;SDS011;18624;50.042;8.436;2023-04-24T06:50:23;3.67;;;3.38;;
32108;SDS011;18624;50.042;8.436;2023-04-24T06:52:50;3.95;;;2.67;;
32108;SDS011;18624;50.042;8.436;2023-04-24T06:55:17;4.65;;;2.90;;
32108;SDS011;18624;50.042;8.436;2023-04-24T06:57:43;4.22;;;3.00;;
32108;SDS011;18624;50.042;8.436;2023-04-24T07:00:11;5.75;;;3.75;;
32108;SDS011;18624;50.042;8.436;2023-04-24T07:02:38;3.63;;;3.20;;
32108;SDS011;18624;50.042;8.436;2023-04-24T07:05:04;4.70;;;3.33;;
32108;SDS011;18624;50.042;8.436;2023-04-24T07:07:31;3.42;;;3.13;;
32108;SDS011;18624;50.042;8.436;2023-04-24T07:09:57;4.05;;;3.40;;
32108;SDS011;18624;50.042;8.436;2023-04-24T07:12:25;3.45;;;3.08;;
32108;SDS011;18624;50.042;8.436;2023-04-24T07:14:52;3.42;;;3.13;;
32108;SDS011;18624;50.042;8.436;2023-04-24T07:17:19;3.25;;;2.95;;
32108;SDS011;18624;50.042;8.436;2023-04-24T07:19:45;3.50;;;2.85;;
32108;SDS011;18624;50.042;8.436;2023-04-24T07:22:12;3.50;;;3.20;;
32108;SDS011;18624;50.042;8.436;2023-04-24T07:24:43;5.20;;;3.28;;
32108;SDS011;18624;50.042;8.436;2023-04-24T07:27:10;3.47;;;3.17;;
32108;SDS011;18624;50.042;8.436;2023-04-24T07:29:38;6.45;;;3.35;;
32108;SDS011;18624;50.042;8.436;2023-04-24T07:32:04;3.35;;;3.03;;
32108;SDS011;18624;50.042;8.436;2023-04-24T07:34:31;3.40;;;2.92;;
32108;SDS011;18624;50.042;8.436;2023-04-24T07:36:57;3.17;;;2.80;;
32108;SDS011;18624;50.042;8.436;2023-04-24T07:39:24;4.07;;;3.45;;
32108;SDS011;18624;50.042;8.436;2023-04-24T07:41:52;3.60;;;2.88;;
32108;SDS011;18624;50.042;8.436;2023-04-24T07:44:18;2.80;;;2.60;;
32108;SDS011;18624;50.042;8.436;2023-04-24T07:46:44;3.70;;;3.40;;
32108;SDS011;18624;50.042;8.436;2023-04-24T07:49:11;5.13;;;3.50;;
32108;SDS011;18624;50.042;8.436;2023-04-24T07:51:40;3.42;;;3.10;;
32108;SDS011;18624;50.042;8.436;2023-04-24T07:54:07;6.00;;;2.83;;
32108;SDS011;18624;50.042;8.436;2023-04-24T07:56:34;5.30;;;3.55;;
32108;SDS011;18624;50.042;8.436;2023-04-24T07:59:02;5.00;;;3.05;;
32108;SDS011;18624;50.042;8.436;2023-04-24T08:01:28;4.28;;;2.85;;
32108;SDS011;18624;50.042;8.436;2023-04-24T08:03:55;5.00;;;2.65;;
32108;SDS011;18624;50.042;8.436;2023-04-24T08:06:22;4.35;;;3.00;;
32108;SDS011;18624;50.042;8.436;2023-04-24T08:08:50;3.28;;;2.90;;
32108;SDS011;18624;50.042;8.436;2023-04-24T08:11:17;4.20;;;2.72;;
32108;SDS011;18624;50.042;8.436;2023-04-24T08:13:44;4.53;;;2.75;;
32108;SDS011;18624;50.042;8.436;2023-04-24T08:16:10;4.90;;;2.95;;
32108;SDS011;18624;50.042;8.436;2023-04-24T08:18:36;3.55;;;3.25;;
32108;SDS011;18624;50.042;8.436;2023-04-24T08:21:03;3.58;;;2.83;;
32108;SDS011;18624;50.042;8.436;2023-04-24T08:23:30;5.43;;;3.15;;
32108;SDS011;18624;50.042;8.436;2023-04-24T08:25:56;3.70;;;3.40;;
32108;SDS011;18624;50.042;8.436;2023-04-24T08:28:23;2.90;;;2.70;;
32108;SDS011;18624;50.042;8.436;2023-04-24T08:30:50;3.08;;;2.78;;
32108;SDS011;18624;50.042;8.436;2023-04-24T08:33:24;3.67;;;3.38;;
32108;SDS011;18624;50.042;8.436;2023-04-24T08:35:50;3.05;;;2.75;;
32108;SDS011;18624;50.042;8.436;2023-04-24T08:38:17;4.10;;;3.13;;
32108;SDS011;18624;50.042;8.436;2023-04-24T08:40:43;2.95;;;2.60;;
32108;SDS011;18624;50.042;8.436;2023-04-24T08:43:12;3.65;;;2.80;;
32108;SDS011;18624;50.042;8.436;2023-04-24T08:45:39;6.13;;;3.78;;
32108;SDS011;18624;50.042;8.436;2023-04-24T08:48:06;26.77;;;4.78;;
32108;SDS011;18624;50.042;8.436;2023-04-24T08:50:45;4.93;;;2.85;;
32108;SDS011;18624;50.042;8.436;2023-04-24T08:53:11;9.43;;;4.25;;
32108;SDS011;18624;50.042;8.436;2023-04-24T08:55:38;8.52;;;5.00;;
32108;SDS011;18624;50.042;8.436;2023-04-24T08:58:07;7.65;;;2.78;;
32108;SDS011;18624;50.042;8.436;2023-04-24T09:00:34;3.33;;;3.05;;
32108;SDS011;18624;50.042;8.436;2023-04-24T09:03:01;2.67;;;2.40;;
32108;SDS011;18624;50.042;8.436;2023-04-24T09:05:29;4.63;;;2.78;;
32108;SDS011;18624;50.042;8.436;2023-04-24T09:07:56;3.25;;;2.67;;
32108;SDS011;18624;50.042;8.436;2023-04-24T09:10:23;4.55;;;2.95;;
32108;SDS011;18624;50.042;8.436;2023-04-24T09:12:51;4.57;;;2.53;;
32108;SDS011;18624;50.042;8.436;2023-04-24T09:15:19;3.33;;;2.85;;
32108;SDS011;18624;50.042;8.436;2023-04-24T09:17:46;4.32;;;2.13;;
32108;SDS011;18624;50.042;8.436;2023-04-24T09:20:13;3.08;;;2.78;;
32108;SDS011;18624;50.042;8.436;2023-04-24T09:22:41;2.47;;;1.98;;
32108;SDS011;18624;50.042;8.436;2023-04-24T09:25:08;2.90;;;2.30;;
32108;SDS011;18624;50.042;8.436;2023-04-24T09:27:35;2.58;;;2.38;;
32108;SDS011;18624;50.042;8.436;2023-04-24T09:30:02;3.38;;;2.80;;
32108;SDS011;18624;50.042;8.436;2023-04-24T09:32:28;3.92;;;2.58;;
32108;SDS011;18624;50.042;8.436;2023-04-24T09:35:10;2.92;;;2.22;;
32108;SDS011;18624;50.042;8.436;2023-04-24T09:37:40;3.70;;;2.20;;
32108;SDS011;18624;50.042;8.436;2023-04-24T09:40:15;2.00;;;1.80;;
32108;SDS011;18624;50.042;8.436;2023-04-24T09:42:51;2.90;;;1.83;;
32108;SDS011;18624;50.042;8.436;2023-04-24T09:45:19;2.22;;;2.03;;
32108;SDS011;18624;50.042;8.436;2023-04-24T09:47:47;3.95;;;2.00;;
32108;SDS011;18624;50.042;8.436;2023-04-24T09:50:18;5.63;;;2.67;;
32108;SDS011;18624;50.042;8.436;2023-04-24T09:52:47;3.50;;;1.95;;
32108;SDS011;18624;50.042;8.436;2023-04-24T09:55:23;2.13;;;1.60;;
32108;SDS011;18624;50.042;8.436;2023-04-24T09:57:51;1.75;;;1.35;;
32108;SDS011;18624;50.042;8.436;2023-04-24T10:00:23;8.15;;;2.25;;
32108;SDS011;18624;50.042;8.436;2023-04-24T10:02:57;8.75;;;3.28;;
32108;SDS011;18624;50.042;8.436;2023-04-24T10:05:26;2.17;;;1.92;;
32108;SDS011;18624;50.042;8.436;2023-04-24T10:07:57;3.83;;;1.70;;
32108;SDS011;18624;50.042;8.436;2023-04-24T10:10:35;2.92;;;2.42;;
32108;SDS011;18624;50.042;8.436;2023-04-24T10:13:05;2.20;;;2.00;;
32108;SDS011;18624;50.042;8.436;2023-04-24T10:15:34;4.30;;;2.47;;
32108;SDS011;18624;50.042;8.436;2023-04-24T10:18:01;1.70;;;1.60;;
32108;SDS011;18624;50.042;8.436;2023-04-24T10:20:30;3.33;;;2.38;;
32108;SDS011;18624;50.042;8.436;2023-04-24T10:22:57;2.90;;;2.30;;
32108;SDS011;18624;50.042;8.436;2023-04-24T10:25:26;8.48;;;3.75;;
32108;SDS011;18624;50.042;8.436;2023-04-24T10:27:54;3.55;;;2.13;;
32108;SDS011;18624;50.042;8.436;2023-04-24T10:30:29;3.75;;;2.80;;
32108;SDS011;18624;50.042;8.436;2023-04-24T10:33:05;4.68;;;2.40;;
32108;SDS011;18624;50.042;8.436;2023-04-24T10:35:34;2.97;;;2.20;;
32108;SDS011;18624;50.042;8.436;2023-04-24T10:38:14;3.55;;;2.00;;
32108;SDS011;18624;50.042;8.436;2023-04-24T10:40:44;14.48;;;3.75;;
32108;SDS011;18624;50.042;8.436;2023-04-24T10:43:11;3.33;;;2.40;;
32108;SDS011;18624;50.042;8.436;2023-04-24T10:45:59;4.53;;;3.17;;
32108;SDS011;18624;50.042;8.436;2023-04-24T10:48:31;4.78;;;1.80;;
32108;SDS011;18624;50.042;8.436;2023-04-24T10:50:58;3.17;;;2.75;;
32108;SDS011;18624;50.042;8.436;2023-04-24T10:53:28;2.40;;;2.20;;
32108;SDS011;18624;50.042;8.436;2023-04-24T10:56:02;2.58;;;2.35;;
32108;SDS011;18624;50.042;8.436;2023-04-24T11:01:25;3.08;;;2.28;;
32108;SDS011;18624;50.042;8.436;2023-04-24T11:03:59;3.72;;;2.17;;
32108;SDS011;18624;50.042;8.436;2023-04-24T11:06:35;4.32;;;2.38;;
32108;SDS011;18624;50.042;8.436;2023-04-24T11:09:09;3.40;;;1.90;;
32108;SDS011;18624;50.042;8.436;2023-04-24T11:11:43;2.75;;;2.10;;
32108;SDS011;18624;50.042;8.436;2023-04-24T11:14:14;1.77;;;1.33;;
32108;SDS011;18624;50.042;8.436;2023-04-24T11:16:42;1.88;;;1.60;;
32108;SDS011;18624;50.042;8.436;2023-04-24T11:19:21;2.05;;;1.90;;
32108;SDS011;18624;50.042;8.436;2023-04-24T11:22:00;2.60;;;1.77;;
32108;SDS011;18624;50.042;8.436;2023-04-24T11:24:38;2.13;;;1.08;;
32108;SDS011;18624;50.042;8.436;2023-04-24T11:27:21;2.65;;;0.80;;
32108;SDS011;18624;50.042;8.436;2023-04-24T11:32:25;1.10;;;1.00;;
32108;SDS011;18624;50.042;8.436;2023-04-24T11:34:54;1.65;;;1.48;;
32108;SDS011;18624;50.042;8.436;2023-04-24T11:37:26;1.23;;;1.13;;
32108;SDS011;18624;50.042;8.436;2023-04-24T11:39:55;1.92;;;1.70;;
32108;SDS011;18624;50.042;8.436;2023-04-24T11:42:23;1.95;;;1.20;;
32108;SDS011;18624;50.042;8.436;2023-04-24T11:44:51;0.75;;;0.70;;
32108;SDS011;18624;50.042;8.436;2023-04-24T11:47:18;0.82;;;0.82;;
32108;SDS011;18624;50.042;8.436;2023-04-24T11:49:45;1.00;;;0.60;;
32108;SDS011;18624;50.042;8.436;2023-04-24T11:52:15;1.00;;;0.90;;
32108;SDS011;18624;50.042;8.436;2023-04-24T11:54:47;1.42;;;1.00;;
32108;SDS011;18624;50.042;8.436;2023-04-24T11:57:15;2.10;;;1.08;;
32108;SDS011;18624;50.042;8.436;2023-04-24T11:59:42;2.33;;;1.38;;
32108;SDS011;18624;50.042;8.436;2023-04-24T12:02:19;3.00;;;1.30;;
32108;SDS011;18624;50.042;8.436;2023-04-24T12:04:50;3.10;;;1.92;;
32108;SDS011;18624;50.042;8.436;2023-04-24T12:07:20;10.20;;;3.65;;
32108;SDS011;18624;50.042;8.436;2023-04-24T12:09:48;3.85;;;1.98;;
32108;SDS011;18624;50.042;8.436;2023-04-24T12:12:24;3.50;;;2.08;;
32108;SDS011;18624;50.042;8.436;2023-04-24T12:14:55;4.15;;;2.03;;
32108;SDS011;18624;50.042;8.436;2023-04-24T12:17:24;5.45;;;2.10;;
32108;SDS011;18624;50.042;8.436;2023-04-24T12:20:00;3.55;;;1.60;;
32108;SDS011;18624;50.042;8.436;2023-04-24T12:22:43;2.88;;;1.80;;
32108;SDS011;18624;50.042;8.436;2023-04-24T12:25:17;3.15;;;2.30;;
32108;SDS011;18624;50.042;8.436;2023-04-24T12:27:45;3.65;;;2.63;;
32108;SDS011;18624;50.042;8.436;2023-04-24T12:30:13;4.13;;;2.95;;
32108;SDS011;18624;50.042;8.436;2023-04-24T12:32:45;3.72;;;3.35;;
32108;SDS011;18624;50.042;8.436;2023-04-24T12:35:13;10.45;;;3.70;;
32108;SDS011;18624;50.042;8.436;2023-04-24T12:40:13;6.80;;;4.38;;
32108;SDS011;18624;50.042;8.436;2023-04-24T12:42:47;4.75;;;3.25;;
32108;SDS011;18624;50.042;8.436;2023-04-24T12:45:16;3.83;;;3.22;;
32108;SDS011;18624;50.042;8.436;2023-04-24T12:47:43;4.13;;;3.33;;
32108;SDS011;18624;50.042;8.436;2023-04-24T12:50:12;4.57;;;3.83;;
32108;SDS011;18624;50.042;8.436;2023-04-24T12:52:40;4.43;;;3.65;;
32108;SDS011;18624;50.042;8.436;2023-04-24T12:55:08;4.85;;;3.90;;
32108;SDS011;18624;50.042;8.436;2023-04-24T12:57:36;5.03;;;4.05;;
32108;SDS011;18624;50.042;8.436;2023-04-24T13:00:04;4.38;;;3.97;;
32108;SDS011;18624;50.042;8.436;2023-04-24T13:02:33;8.43;;;4.65;;
32108;SDS011;18624;50.042;8.436;2023-04-24T13:05:00;4.32;;;3.50;;
32108;SDS011;18624;50.042;8.436;2023-04-24T13:07:27;4.28;;;3.47;;
32108;SDS011;18624;50.042;8.436;2023-04-24T13:09:54;5.85;;;3.67;;
32108;SDS011;18624;50.042;8.436;2023-04-24T13:12:22;7.88;;;4.22;;
32108;SDS011;18624;50.042;8.436;2023-04-24T13:14:52;4.03;;;3.28;;
32108;SDS011;18624;50.042;8.436;2023-04-24T13:17:19;5.72;;;3.35;;
32108;SDS011;18624;50.042;8.436;2023-04-24T13:19:46;3.40;;;3.10;;
32108;SDS011;18624;50.042;8.436;2023-04-24T13:22:16;4.82;;;2.92;;
32108;SDS011;18624;50.042;8.436;2023-04-24T13:24:44;3.20;;;2.80;;
32108;SDS011;18624;50.042;8.436;2023-04-24T13:27:11;5.95;;;3.22;;
32108;SDS011;18624;50.042;8.436;2023-04-24T13:29:37;3.47;;;3.17;;
32108;SDS011;18624;50.042;8.436;2023-04-24T13:32:04;5.28;;;3.00;;
32108;SDS011;18624;50.042;8.436;2023-04-24T13:34:30;3.38;;;2.95;;
32108;SDS011;18624;50.042;8.436;2023-04-24T13:36:57;3.60;;;3.30;;
32108;SDS011;18624;50.042;8.436;2023-04-24T13:39:25;4.32;;;3.22;;
32108;SDS011;18624;50.042;8.436;2023-04-24T13:41:52;3.17;;;2.88;;
32108;SDS011;18624;50.042;8.436;2023-04-24T13:44:20;3.72;;;2.80;;
32108;SDS011;18624;50.042;8.436;2023-04-24T13:46:47;4.65;;;3.58;;
32108;SDS011;18624;50.042;8.436;2023-04-24T13:49:15;5.03;;;3.08;;
32108;SDS011;18624;50.042;8.436;2023-04-24T13:51:42;7.90;;;3.63;;
32108;SDS011;18624;50.042;8.436;2023-04-24T13:54:08;5.25;;;2.85;;
32108;SDS011;18624;50.042;8.436;2023-04-24T13:56:35;5.15;;;3.63;;
32108;SDS011;18624;50.042;8.436;2023-04-24T13:59:01;4.55;;;3.40;;
32108;SDS011;18624;50.042;8.436;2023-04-24T14:01:28;3.85;;;3.25;;
32108;SDS011;18624;50.042;8.436;2023-04-24T14:03:55;3.60;;;3.17;;
32108;SDS011;18624;50.042;8.436;2023-04-24T14:06:22;5.22;;;3.90;;
32108;SDS011;18624;50.042;8.436;2023-04-24T14:08:49;6.78;;;3.95;;
32108;SDS011;18624;50.042;8.436;2023-04-24T14:11:16;4.45;;;3.58;;
32108;SDS011;18624;50.042;8.436;2023-04-24T14:13:44;6.43;;;3.70;;
32108;SDS011;18624;50.042;8.436;2023-04-24T14:16:11;3.38;;;3.00;;
32108;SDS011;18624;50.042;8.436;2023-04-24T14:18:37;4.57;;;3.45;;
32108;SDS011;18624;50.042;8.436;2023-04-24T14:21:04;4.75;;;3.33;;
32108;SDS011;18624;50.042;8.436;2023-04-24T14:23:31;3.42;;;2.97;;
32108;SDS011;18624;50.042;8.436;2023-04-24T14:25:58;5.18;;;3.15;;
32108;SDS011;18624;50.042;8.436;2023-04-24T14:28:25;7.20;;;4.28;;
32108;SDS011;18624;50.042;8.436;2023-04-24T14:30:55;7.38;;;4.07;;
32108;SDS011;18624;50.042;8.436;2023-04-24T14:33:22;8.77;;;3.72;;
32108;SDS011;18624;50.042;8.436;2023-04-24T14:35:48;4.13;;;3.20;;
32108;SDS011;18624;50.042;8.436;2023-04-24T14:38:15;7.22;;;3.55;;
32108;SDS011;18624;50.042;8.436;2023-04-24T14:40:41;4.60;;;3.08;;
32108;SDS011;18624;50.042;8.436;2023-04-24T14:43:11;4.78;;;3.08;;
32108;SDS011;18624;50.042;8.436;2023-04-24T14:45:37;3.58;;;3.20;;
32108;SDS011;18624;50.042;8.436;2023-04-24T14:48:04;3.72;;;2.80;;
32108;SDS011;18624;50.042;8.436;2023-04-24T14:50:30;3.22;;;2.92;;
32108;SDS011;18624;50.042;8.436;2023-04-24T14:52:57;7.30;;;2.95;;
32108;SDS011;18624;50.042;8.436;2023-04-24T14:55:24;5.18;;;3.33;;
32108;SDS011;18624;50.042;8.436;2023-04-24T14:57:52;6.45;;;3.15;;
32108;SDS011;18624;50.042;8.436;2023-04-24T15:00:19;5.10;;;3.97;;
32108;SDS011;18624;50.042;8.436;2023-04-24T15:02:46;5.35;;;2.95;;
32108;SDS011;18624;50.042;8.436;2023-04-24T15:05:16;3.80;;;3.15;;